Koyo — JD2279 — position and weather

sailwx.info

Track history (hours):
 
Tides and Currents Weather Stations Pressure Air Temp Water Temp Dewpoint Dewpoint Depression Visibility Wind Speed Wind Dir Waves Ship Positions

Koyo

Last reported at 2015-Apr-01 08:09 UTC. Time now 2015-Apr-01 17:53 UTC.
Position N 34°35' E 134°51'.

Length 80 m; draft 3.6 m.

Type: Cargo ship. MMSI: 431301812.

Date/timePositionNaut miles runAvg speedWind from/ knotsBaromVisibWave heightAir tempDewpointWater temp
2015-Apr-01 08:09N 34°35' E 134°51'812.7
2015-Apr-01 07:30N 34°38' E 135°00'1212.4
2015-Apr-01 06:33N 34°37' E 135°15'9 8.8
2015-Apr-01 05:33N 34°38' E 135°25'0 0.0
2015-Apr-01 04:33N 34°38' E 135°25'2 1.7
2015-Apr-01 03:33N 34°37' E 135°23'7 7.4
2015-Apr-01 02:32N 34°40' E 135°14'0 0.0
2015-Apr-01 01:28N 34°40' E 135°14'1 1.1
2015-Apr-01 00:23N 34°39' E 135°15'0 0.1
2015-Mar-31 23:33N 34°39' E 135°15'9 8.7
2015-Mar-31 22:33N 34°35' E 135°06'8 7.6
2015-Mar-31 21:33N 34°36' E 134°57'9 8.6
2015-Mar-31 20:32N 34°33' E 134°47'6 0.2
2015-Mar-30 04:33N 34°36' E 134°53'9 9.2
2015-Mar-30 03:33N 34°36' E 135°05'9 8.9
2015-Mar-30 02:33N 34°39' E 135°14'0 0.0
2015-Mar-30 01:33N 34°39' E 135°14'2 2.3
2015-Mar-30 00:33N 34°41' E 135°12'0 0.0
2015-Mar-29 23:19N 34°41' E 135°12'0 0.0
2015-Mar-29 22:31N 34°41' E 135°12'0 0.0
2015-Mar-29 21:19N 34°41' E 135°12'0 0.0
2015-Mar-29 20:25N 34°41' E 135°12'0 0.0
2015-Mar-29 19:31N 34°41' E 135°12'0 0.0
2015-Mar-29 18:31N 34°41' E 135°12'0 0.0
2015-Mar-29 17:31N 34°41' E 135°12'0 0.0
2015-Mar-29 16:19N 34°41' E 135°12'0 0.0
2015-Mar-29 15:31N 34°41' E 135°12'0 0.0
2015-Mar-29 14:31N 34°41' E 135°12'0 0.0
2015-Mar-29 13:25N 34°41' E 135°12'0 0.0
2015-Mar-29 12:31N 34°41' E 135°12'0 0.0
2015-Mar-29 11:31N 34°41' E 135°12'0 0.0
2015-Mar-29 10:31N 34°41' E 135°12'0 0.0
2015-Mar-29 09:25N 34°41' E 135°12'0 0.0
2015-Mar-29 08:31N 34°41' E 135°12'0 0.0
2015-Mar-29 07:31N 34°41' E 135°12'0 0.0
2015-Mar-29 06:25N 34°41' E 135°12'0 0.0
2015-Mar-29 05:31N 34°41' E 135°12'0 0.0
2015-Mar-29 04:31N 34°41' E 135°12'0 0.0
2015-Mar-29 03:31N 34°41' E 135°12'0 0.0
2015-Mar-29 02:31N 34°41' E 135°12'0 0.0
2015-Mar-29 01:31N 34°41' E 135°12'0 0.0
2015-Mar-29 00:25N 34°41' E 135°12'0 0.0
2015-Mar-28 23:31N 34°41' E 135°12'0 0.0
2015-Mar-28 22:31N 34°41' E 135°12'0 0.0
2015-Mar-28 21:25N 34°41' E 135°12'0 0.0
2015-Mar-28 20:31N 34°41' E 135°12'0 0.0
2015-Mar-28 19:25N 34°41' E 135°12'0 0.0
2015-Mar-28 18:31N 34°41' E 135°12'0 0.0
2015-Mar-28 17:31N 34°41' E 135°12'0 0.0
2015-Mar-28 16:31N 34°41' E 135°12'0 0.0
2015-Mar-28 15:31N 34°41' E 135°12'0 0.0
2015-Mar-28 14:31N 34°41' E 135°12'0 0.0
2015-Mar-28 13:31N 34°41' E 135°12'0 0.0
2015-Mar-28 12:31N 34°41' E 135°12'0 0.0
2015-Mar-28 11:31N 34°41' E 135°12'0 0.0
2015-Mar-28 10:25N 34°41' E 135°12'0 0.0
2015-Mar-28 09:31N 34°41' E 135°12'1 1.0
2015-Mar-28 08:33N 34°41' E 135°14'1111.3
2015-Mar-28 07:33N 34°30' E 135°11'1313.5
2015-Mar-28 06:33N 34°19' E 135°01'1313.1
2015-Mar-28 05:33N 34°09' E 134°51'28 1.1
2015-Mar-27 03:33N 34°36' E 134°56'1111.4
2015-Mar-27 02:33N 34°36' E 135°09'5 5.2
2015-Mar-27 01:33N 34°39' E 135°14'0 0.0
2015-Mar-27 00:33N 34°39' E 135°14'0 0.0
2015-Mar-26 23:33N 34°39' E 135°14'5 5.2
2015-Mar-26 22:33N 34°36' E 135°10'1313.0
2015-Mar-26 21:33N 34°35' E 134°54'5 0.1
2015-Mar-25 11:17N 34°34' E 134°48'912.1
2015-Mar-25 10:33N 34°37' E 134°58'1010.4
2015-Mar-25 09:33N 34°37' E 135°11'1211.6
2015-Mar-25 08:33N 34°38' E 135°25'0 0.0
2015-Mar-25 07:33N 34°38' E 135°25'0 0.0
2015-Mar-25 06:33N 34°38' E 135°25'9 8.7
2015-Mar-25 05:33N 34°39' E 135°15'0 0.0
2015-Mar-25 04:33N 34°39' E 135°15'0 0.3
2015-Mar-25 03:33N 34°39' E 135°15'3 2.4
2015-Mar-25 02:24N 34°41' E 135°13'0 0.0
2015-Mar-25 01:30N 34°41' E 135°13'0 0.0
2015-Mar-25 00:30N 34°41' E 135°13'0 0.0
2015-Mar-24 23:24N 34°41' E 135°13'0 0.0
2015-Mar-24 22:33N 34°41' E 135°13'5 5.5
2015-Mar-24 21:33N 34°36' E 135°10'1513.6
2015-Mar-24 20:28N 34°35' E 134°53'1 0.0
2015-Mar-23 03:33N 34°35' E 134°53'1212.0
2015-Mar-23 02:34N 34°36' E 135°08'6 6.4
2015-Mar-23 01:33N 34°40' E 135°14'0 0.0
2015-Mar-23 00:33N 34°40' E 135°14'0 0.0
2015-Mar-22 23:34N 34°40' E 135°14'1 0.9
2015-Mar-22 22:34N 34°39' E 135°15'0 0.1
2015-Mar-22 21:30N 34°39' E 135°15'0 0.0
2015-Mar-22 20:30N 34°39' E 135°15'0 0.0
2015-Mar-22 19:30N 34°39' E 135°15'0 0.0
2015-Mar-22 18:30N 34°39' E 135°15'0 0.0
2015-Mar-22 17:30N 34°39' E 135°15'0 0.0
2015-Mar-22 16:30N 34°39' E 135°15'0 0.0
2015-Mar-22 15:30N 34°39' E 135°15'1 0.6
2015-Mar-22 14:33N 34°38' E 135°15'1211.8
2015-Mar-22 13:33N 34°28' E 135°09'1312.5
2015-Mar-22 12:33N 34°18' E 134°60'1612.0
2015-Mar-22 11:14N 34°02' E 134°55'  
Track history (hours):
 
Tides and Currents Weather Stations Pressure Air Temp Water Temp Dewpoint Dewpoint Depression Visibility Wind Speed Wind Dir Waves Ship Positions

Koyo

Last reported at 2015-Apr-01 08:09 UTC. Time now 2015-Apr-01 17:53 UTC.
Position N 34°35' E 134°51'.

Length 80 m; draft 3.6 m.

Type: Cargo ship. MMSI: 431301812.

Date/timePositionNaut miles runAvg speedWind from/ knotsBaromVisibWave heightAir tempDewpointWater temp
2015-Apr-01 08:09N 34°35' E 134°51'812.7
2015-Apr-01 07:30N 34°38' E 135°00'1212.4
2015-Apr-01 06:33N 34°37' E 135°15'9 8.8
2015-Apr-01 05:33N 34°38' E 135°25'0 0.0
2015-Apr-01 04:33N 34°38' E 135°25'2 1.7
2015-Apr-01 03:33N 34°37' E 135°23'7 7.4
2015-Apr-01 02:32N 34°40' E 135°14'0 0.0
2015-Apr-01 01:28N 34°40' E 135°14'1 1.1
2015-Apr-01 00:23N 34°39' E 135°15'0 0.1
2015-Mar-31 23:33N 34°39' E 135°15'9 8.7
2015-Mar-31 22:33N 34°35' E 135°06'8 7.6
2015-Mar-31 21:33N 34°36' E 134°57'9 8.6
2015-Mar-31 20:32N 34°33' E 134°47'6 0.2
2015-Mar-30 04:33N 34°36' E 134°53'9 9.2
2015-Mar-30 03:33N 34°36' E 135°05'9 8.9
2015-Mar-30 02:33N 34°39' E 135°14'0 0.0
2015-Mar-30 01:33N 34°39' E 135°14'2 2.3
2015-Mar-30 00:33N 34°41' E 135°12'0 0.0
2015-Mar-29 23:19N 34°41' E 135°12'0 0.0
2015-Mar-29 22:31N 34°41' E 135°12'0 0.0
2015-Mar-29 21:19N 34°41' E 135°12'0 0.0
2015-Mar-29 20:25N 34°41' E 135°12'0 0.0
2015-Mar-29 19:31N 34°41' E 135°12'0 0.0
2015-Mar-29 18:31N 34°41' E 135°12'0 0.0
2015-Mar-29 17:31N 34°41' E 135°12'0 0.0
2015-Mar-29 16:19N 34°41' E 135°12'0 0.0
2015-Mar-29 15:31N 34°41' E 135°12'0 0.0
2015-Mar-29 14:31N 34°41' E 135°12'0 0.0
2015-Mar-29 13:25N 34°41' E 135°12'0 0.0
2015-Mar-29 12:31N 34°41' E 135°12'0 0.0
2015-Mar-29 11:31N 34°41' E 135°12'0 0.0
2015-Mar-29 10:31N 34°41' E 135°12'0 0.0
2015-Mar-29 09:25N 34°41' E 135°12'0 0.0
2015-Mar-29 08:31N 34°41' E 135°12'0 0.0
2015-Mar-29 07:31N 34°41' E 135°12'0 0.0
2015-Mar-29 06:25N 34°41' E 135°12'0 0.0
2015-Mar-29 05:31N 34°41' E 135°12'0 0.0
2015-Mar-29 04:31N 34°41' E 135°12'0 0.0
2015-Mar-29 03:31N 34°41' E 135°12'0 0.0
2015-Mar-29 02:31N 34°41' E 135°12'0 0.0
2015-Mar-29 01:31N 34°41' E 135°12'0 0.0
2015-Mar-29 00:25N 34°41' E 135°12'0 0.0
2015-Mar-28 23:31N 34°41' E 135°12'0 0.0
2015-Mar-28 22:31N 34°41' E 135°12'0 0.0
2015-Mar-28 21:25N 34°41' E 135°12'0 0.0
2015-Mar-28 20:31N 34°41' E 135°12'0 0.0
2015-Mar-28 19:25N 34°41' E 135°12'0 0.0
2015-Mar-28 18:31N 34°41' E 135°12'0 0.0
2015-Mar-28 17:31N 34°41' E 135°12'0 0.0
2015-Mar-28 16:31N 34°41' E 135°12'0 0.0
2015-Mar-28 15:31N 34°41' E 135°12'0 0.0
2015-Mar-28 14:31N 34°41' E 135°12'0 0.0
2015-Mar-28 13:31N 34°41' E 135°12'0 0.0
2015-Mar-28 12:31N 34°41' E 135°12'0 0.0
2015-Mar-28 11:31N 34°41' E 135°12'0 0.0
2015-Mar-28 10:25N 34°41' E 135°12'0 0.0
2015-Mar-28 09:31N 34°41' E 135°12'1 1.0
2015-Mar-28 08:33N 34°41' E 135°14'1111.3
2015-Mar-28 07:33N 34°30' E 135°11'1313.5
2015-Mar-28 06:33N 34°19' E 135°01'1313.1
2015-Mar-28 05:33N 34°09' E 134°51'28 1.1
2015-Mar-27 03:33N 34°36' E 134°56'1111.4
2015-Mar-27 02:33N 34°36' E 135°09'5 5.2
2015-Mar-27 01:33N 34°39' E 135°14'0 0.0
2015-Mar-27 00:33N 34°39' E 135°14'0 0.0
2015-Mar-26 23:33N 34°39' E 135°14'5 5.2
2015-Mar-26 22:33N 34°36' E 135°10'1313.0
2015-Mar-26 21:33N 34°35' E 134°54'5 0.1
2015-Mar-25 11:17N 34°34' E 134°48'912.1
2015-Mar-25 10:33N 34°37' E 134°58'1010.4
2015-Mar-25 09:33N 34°37' E 135°11'1211.6
2015-Mar-25 08:33N 34°38' E 135°25'0 0.0
2015-Mar-25 07:33N 34°38' E 135°25'0 0.0
2015-Mar-25 06:33N 34°38' E 135°25'9 8.7
2015-Mar-25 05:33N 34°39' E 135°15'0 0.0
2015-Mar-25 04:33N 34°39' E 135°15'0 0.3
2015-Mar-25 03:33N 34°39' E 135°15'3 2.4
2015-Mar-25 02:24N 34°41' E 135°13'0 0.0
2015-Mar-25 01:30N 34°41' E 135°13'0 0.0
2015-Mar-25 00:30N 34°41' E 135°13'0 0.0
2015-Mar-24 23:24N 34°41' E 135°13'0 0.0
2015-Mar-24 22:33N 34°41' E 135°13'5 5.5
2015-Mar-24 21:33N 34°36' E 135°10'1513.6
2015-Mar-24 20:28N 34°35' E 134°53'1 0.0
2015-Mar-23 03:33N 34°35' E 134°53'1212.0
2015-Mar-23 02:34N 34°36' E 135°08'6 6.4
2015-Mar-23 01:33N 34°40' E 135°14'0 0.0
2015-Mar-23 00:33N 34°40' E 135°14'0 0.0
2015-Mar-22 23:34N 34°40' E 135°14'1 0.9
2015-Mar-22 22:34N 34°39' E 135°15'0 0.1
2015-Mar-22 21:30N 34°39' E 135°15'0 0.0
2015-Mar-22 20:30N 34°39' E 135°15'0 0.0
2015-Mar-22 19:30N 34°39' E 135°15'0 0.0
2015-Mar-22 18:30N 34°39' E 135°15'0 0.0
2015-Mar-22 17:30N 34°39' E 135°15'0 0.0
2015-Mar-22 16:30N 34°39' E 135°15'0 0.0
2015-Mar-22 15:30N 34°39' E 135°15'1 0.6
2015-Mar-22 14:33N 34°38' E 135°15'1211.8
2015-Mar-22 13:33N 34°28' E 135°09'1312.5
2015-Mar-22 12:33N 34°18' E 134°60'1612.0
2015-Mar-22 11:14N 34°02' E 134°55'  

Dump ship's entire track history